Time;durP1;ratioP1;P1;durP2;ratioP2;P2;SDS_P1;SDS_P2;PMS_P1;PMS_P2;Temp;Humidity;BMP_temperature;BMP_pressure;BME280_temperature;BME280_humidity;BME280_pressure;Samples;Min_cycle;Max_cycle;Signal;HPM_P1;HPM_P2
2023/04/19 00:00:26;;;;;;;11.63;10.40;;;7.80;99.90;;;;;;4891027;29;20577;-78
2023/04/19 00:02:55;;;;;;;11.70;10.50;;;7.80;99.90;;;;;;4898547;29;20255;-77
2023/04/19 00:05:24;;;;;;;11.43;10.23;;;7.80;99.90;;;;;;4899038;29;20237;-78
2023/04/19 00:07:54;;;;;;;11.97;10.67;;;7.80;99.90;;;;;;4892507;29;20218;-77
2023/04/19 00:10:22;;;;;;;12.13;10.90;;;7.80;99.90;;;;;;4880330;29;20225;-77
2023/04/19 00:12:50;;;;;;;13.07;11.57;;;7.70;99.90;;;;;;4880271;29;20598;-78
2023/04/19 00:15:19;;;;;;;12.40;11.20;;;7.80;99.90;;;;;;4891482;29;20213;-78
2023/04/19 00:17:47;;;;;;;12.03;10.83;;;7.70;99.90;;;;;;4879674;29;20269;-79
2023/04/19 00:20:15;;;;;;;12.40;11.13;;;7.70;99.90;;;;;;4879809;29;20238;-76
2023/04/19 00:22:43;;;;;;;13.30;11.93;;;7.70;99.90;;;;;;4879321;29;20337;-77
2023/04/19 00:25:13;;;;;;;13.77;12.37;;;7.70;99.90;;;;;;4879987;29;20351;-77
2023/04/19 00:27:41;;;;;;;13.27;11.97;;;7.70;99.90;;;;;;4879877;29;20301;-73
2023/04/19 00:30:10;;;;;;;13.43;12.13;;;7.70;99.90;;;;;;4880233;29;20202;-77
2023/04/19 00:32:38;;;;;;;13.57;12.27;;;7.70;99.90;;;;;;4879209;29;20240;-78
2023/04/19 00:35:06;;;;;;;14.10;12.67;;;7.70;99.90;;;;;;4879432;29;20558;-78
2023/04/19 00:37:34;;;;;;;14.20;12.83;;;7.60;99.90;;;;;;4879557;29;20301;-77
2023/04/19 00:40:04;;;;;;;14.17;12.77;;;7.60;99.90;;;;;;4879767;29;20218;-76
2023/04/19 00:42:33;;;;;;;14.77;13.17;;;7.60;99.90;;;;;;4879113;29;20221;-77
2023/04/19 00:45:01;;;;;;;15.00;13.50;;;7.60;99.90;;;;;;4878906;29;20230;-78
2023/04/19 00:47:30;;;;;;;16.47;14.87;;;7.60;99.90;;;;;;4879576;29;20210;-76
2023/04/19 00:49:58;;;;;;;17.93;15.27;;;7.60;99.90;;;;;;4879192;29;20276;-78
2023/04/19 00:52:27;;;;;;;16.53;14.83;;;7.60;99.90;;;;;;4879416;29;20217;-79
2023/04/19 00:54:58;;;;;;;16.50;14.77;;;7.60;99.90;;;;;;4879245;29;20214;-78
2023/04/19 00:57:26;;;;;;;16.87;15.13;;;7.50;99.90;;;;;;4879176;29;20216;-79
2023/04/19 00:59:57;;;;;;;17.57;15.87;;;7.60;99.90;;;;;;4879391;29;20693;-77
2023/04/19 01:02:27;;;;;;;18.27;15.40;;;7.60;99.90;;;;;;4878584;29;20218;-78
2023/04/19 01:04:55;;;;;;;18.27;16.37;;;7.60;99.90;;;;;;4879303;29;20234;-76
2023/04/19 01:07:23;;;;;;;19.00;15.77;;;7.60;99.90;;;;;;4878836;29;20214;-78
2023/04/19 01:09:51;;;;;;;18.90;16.90;;;7.60;99.90;;;;;;4879061;29;20210;-77
2023/04/19 01:12:19;;;;;;;18.10;16.37;;;7.60;99.90;;;;;;4879076;29;20218;-79
2023/04/19 01:14:47;;;;;;;19.17;17.00;;;7.60;99.90;;;;;;4896997;29;20218;-78
2023/04/19 01:17:17;;;;;;;19.43;17.43;;;7.60;99.90;;;;;;4888087;29;20214;-79
2023/04/19 01:19:46;;;;;;;20.37;18.27;;;7.60;99.90;;;;;;4878716;29;20238;-77
2023/04/19 01:22:19;;;;;;;20.63;18.63;;;7.60;99.90;;;;;;4878788;29;20249;-79
2023/04/19 01:24:47;;;;;;;21.93;19.73;;;7.50;99.90;;;;;;4886263;29;20673;-81
2023/04/19 01:27:16;;;;;;;22.17;19.93;;;7.50;99.90;;;;;;4897541;29;20220;-78
2023/04/19 01:29:44;;;;;;;21.57;19.37;;;7.40;99.90;;;;;;4897597;29;20617;-79
2023/04/19 01:32:12;;;;;;;21.00;18.90;;;7.50;99.90;;;;;;4895076;29;20633;-79
2023/04/19 01:34:41;;;;;;;22.40;20.00;;;7.50;99.90;;;;;;4878970;29;20214;-79
2023/04/19 01:37:09;;;;;;;22.20;19.90;;;7.40;99.90;;;;;;4879354;29;20260;-80
2023/04/19 01:39:38;;;;;;;24.23;20.43;;;7.50;99.90;;;;;;4879149;29;20221;-79
2023/04/19 01:42:06;;;;;;;23.83;21.30;;;7.50;99.90;;;;;;4897702;29;20222;-79
2023/04/19 01:44:35;;;;;;;22.93;20.53;;;7.50;99.90;;;;;;4897981;29;20621;-79
2023/04/19 01:47:04;;;;;;;23.57;21.17;;;7.50;99.90;;;;;;4897335;29;20700;-76
2023/04/19 01:49:32;;;;;;;22.93;20.53;;;7.50;99.90;;;;;;4889041;29;20214;-80
2023/04/19 01:52:00;;;;;;;24.33;21.90;;;7.40;99.90;;;;;;4878780;29;20219;-78
2023/04/19 01:54:28;;;;;;;22.90;20.50;;;7.40;99.90;;;;;;4879199;29;20210;-80
2023/04/19 01:56:58;;;;;;;24.13;21.70;;;7.40;99.90;;;;;;4880949;29;20210;-79
2023/04/19 01:59:26;;;;;;;24.03;21.53;;;7.40;99.90;;;;;;4883055;29;20217;-75
2023/04/19 02:01:54;;;;;;;27.30;23.33;;;7.40;99.90;;;;;;4882111;29;20649;-78
2023/04/19 02:04:22;;;;;;;25.43;22.63;;;7.40;99.90;;;;;;4882504;29;20241;-78
2023/04/19 02:06:50;;;;;;;26.50;23.63;;;7.40;99.90;;;;;;4882729;29;20234;-76
2023/04/19 02:09:19;;;;;;;26.73;23.87;;;7.30;99.90;;;;;;4901502;29;20234;-79
2023/04/19 02:11:47;;;;;;;26.60;23.80;;;7.30;99.90;;;;;;4903851;29;20223;-78
2023/04/19 02:14:16;;;;;;;28.13;23.83;;;7.30;99.90;;;;;;4904458;29;20214;-76
2023/04/19 02:16:44;;;;;;;27.27;24.53;;;7.30;99.90;;;;;;4885273;29;20218;-75
2023/04/19 02:19:12;;;;;;;27.57;24.23;;;7.30;99.90;;;;;;4882805;29;20230;-74
2023/04/19 02:21:41;;;;;;;28.43;25.43;;;7.30;99.90;;;;;;4882780;29;20234;-74
2023/04/19 02:24:09;;;;;;;26.90;24.00;;;7.40;99.90;;;;;;4884366;29;20561;-80
2023/04/19 02:26:37;;;;;;;26.83;24.03;;;7.30;99.90;;;;;;4887619;29;20294;-80
2023/04/19 02:29:05;;;;;;;27.30;24.40;;;7.30;99.90;;;;;;4885642;29;20214;-74
2023/04/19 02:31:36;;;;;;;26.77;23.97;;;7.30;99.90;;;;;;4883876;29;20302;-74
2023/04/19 02:34:05;;;;;;;29.03;25.77;;;7.30;99.90;;;;;;4892314;29;20210;-75
2023/04/19 02:36:33;;;;;;;27.77;24.87;;;7.30;99.90;;;;;;4891144;29;20253;-74
2023/04/19 02:39:04;;;;;;;29.43;25.50;;;7.20;99.90;;;;;;4892317;29;20203;-77
2023/04/19 02:41:32;;;;;;;29.20;24.80;;;7.30;99.90;;;;;;4883392;29;20222;-79
2023/04/19 02:44:00;;;;;;;29.30;26.20;;;7.30;99.90;;;;;;4881567;29;20218;-78
2023/04/19 02:46:28;;;;;;;29.17;24.83;;;7.20;99.90;;;;;;4882147;29;20238;-77
2023/04/19 02:48:57;;;;;;;28.37;25.37;;;7.20;99.90;;;;;;4882000;29;20226;-79
2023/04/19 02:51:25;;;;;;;27.87;24.93;;;7.30;99.90;;;;;;4882213;29;20623;-78
2023/04/19 02:53:53;;;;;;;27.97;24.97;;;7.30;99.90;;;;;;4881479;29;20206;-77
2023/04/19 02:56:21;;;;;;;27.60;24.73;;;7.20;99.90;;;;;;4882817;29;20207;-75
2023/04/19 02:58:50;;;;;;;26.70;23.90;;;7.30;99.90;;;;;;4892898;29;20214;-79
2023/04/19 03:01:18;;;;;;;28.27;25.23;;;7.30;99.90;;;;;;4882132;29;20349;-78
2023/04/19 03:03:46;;;;;;;27.27;24.37;;;7.30;99.90;;;;;;4881597;29;20214;-80
2023/04/19 03:06:15;;;;;;;26.80;23.80;;;7.30;99.90;;;;;;4881797;29;20290;-78
2023/04/19 03:08:43;;;;;;;27.63;24.93;;;7.30;99.90;;;;;;4881011;29;20304;-78
2023/04/19 03:11:13;;;;;;;26.57;23.67;;;7.30;99.90;;;;;;4893566;29;20220;-75
2023/04/19 03:13:41;;;;;;;27.30;24.40;;;7.20;99.90;;;;;;4899480;29;20218;-78
2023/04/19 03:16:09;;;;;;;27.70;24.80;;;7.20;99.90;;;;;;4882478;29;20210;-79
2023/04/19 03:18:37;;;;;;;27.10;24.30;;;7.20;99.90;;;;;;4882371;29;20245;-79
2023/04/19 03:21:08;;;;;;;27.50;24.37;;;7.20;99.90;;;;;;4882475;29;20614;-80
2023/04/19 03:23:38;;;;;;;29.33;25.90;;;7.20;99.90;;;;;;4881360;29;20218;-79
2023/04/19 03:26:06;;;;;;;30.50;25.73;;;7.20;99.90;;;;;;4881463;29;20236;-79
2023/04/19 03:28:35;;;;;;;27.53;24.37;;;7.20;99.90;;;;;;4881626;29;20305;-79
2023/04/19 03:31:03;;;;;;;27.80;24.77;;;7.20;99.90;;;;;;4881285;29;20216;-79
2023/04/19 03:33:31;;;;;;;28.63;25.60;;;7.30;99.90;;;;;;4881122;29;20226;-79
2023/04/19 03:35:59;;;;;;;28.27;25.23;;;7.30;99.90;;;;;;4881191;29;20297;-77
2023/04/19 03:38:27;;;;;;;28.10;25.10;;;7.30;99.90;;;;;;4881358;29;20228;-80
2023/04/19 03:40:58;;;;;;;29.23;25.03;;;7.30;99.90;;;;;;4880850;29;20225;-78
2023/04/19 03:43:26;;;;;;;28.23;24.73;;;7.20;99.90;;;;;;4879957;29;20218;-80
2023/04/19 03:45:54;;;;;;;28.77;24.93;;;7.30;99.90;;;;;;4880798;29;20238;-77
2023/04/19 03:48:22;;;;;;;27.90;24.67;;;7.30;99.90;;;;;;4901280;29;20245;-78
2023/04/19 03:50:50;;;;;;;27.10;24.23;;;7.30;99.90;;;;;;4888649;29;20298;-79
2023/04/19 03:53:18;;;;;;;27.27;23.77;;;7.30;99.90;;;;;;4887860;29;20305;-77
2023/04/19 03:55:46;;;;;;;28.07;25.07;;;7.30;99.90;;;;;;4885869;29;20221;-78
2023/04/19 03:58:16;;;;;;;27.63;24.63;;;7.20;99.90;;;;;;4881247;29;20664;-79
2023/04/19 04:00:44;;;;;;;26.97;23.40;;;7.20;99.90;;;;;;4880752;29;20344;-79
2023/04/19 04:03:12;;;;;;;27.73;24.83;;;7.20;99.90;;;;;;4879404;29;20221;-78
2023/04/19 04:05:40;;;;;;;27.90;24.07;;;7.20;99.90;;;;;;4884723;29;20305;-79
2023/04/19 04:08:08;;;;;;;27.43;23.90;;;7.30;99.90;;;;;;4886390;29;20345;-77
2023/04/19 04:10:36;;;;;;;27.97;24.30;;;7.20;99.90;;;;;;4897995;29;20603;-75
2023/04/19 04:13:05;;;;;;;28.40;24.63;;;7.30;99.90;;;;;;4898396;29;20224;-77
2023/04/19 04:15:34;;;;;;;26.57;23.67;;;7.30;99.90;;;;;;4898635;29;20210;-77
2023/04/19 04:18:02;;;;;;;27.47;24.27;;;7.30;99.90;;;;;;4881895;29;20296;-77
2023/04/19 04:20:30;;;;;;;27.80;23.53;;;7.20;99.90;;;;;;4880036;29;20217;-77
2023/04/19 04:22:58;;;;;;;28.50;24.00;;;7.20;99.90;;;;;;4879796;29;20308;-73
2023/04/19 04:25:27;;;;;;;27.90;24.53;;;7.20;99.90;;;;;;4879660;29;20588;-79
2023/04/19 04:27:55;;;;;;;28.17;23.87;;;7.20;99.90;;;;;;4879782;29;20237;-78
2023/04/19 04:30:23;;;;;;;29.20;24.70;;;7.20;99.90;;;;;;4879163;29;20669;-75
2023/04/19 04:32:57;;;;;;;28.53;24.70;;;7.20;99.90;;;;;;4879158;29;20293;-75
2023/04/19 04:35:28;;;;;;;27.63;23.90;;;7.20;99.90;;;;;;4879505;29;20253;-75
2023/04/19 04:37:57;;;;;;;28.73;24.03;;;7.20;99.90;;;;;;4880164;29;20210;-76
2023/04/19 04:40:26;;;;;;;31.20;25.10;;;7.30;99.90;;;;;;4880027;29;20631;-75
2023/04/19 04:42:54;;;;;;;30.20;24.27;;;7.30;99.90;;;;;;4879506;29;20218;-79
2023/04/19 04:45:22;;;;;;;31.30;24.70;;;7.30;99.90;;;;;;4879649;29;20253;-77
2023/04/19 04:47:50;;;;;;;32.60;26.93;;;7.30;99.90;;;;;;4887630;29;20244;-80
2023/04/19 04:50:20;;;;;;;32.07;26.93;;;7.30;99.90;;;;;;4892948;29;20281;-80
2023/04/19 04:52:49;;;;;;;29.40;25.60;;;7.30;99.90;;;;;;4889943;29;20214;-77
2023/04/19 04:55:17;;;;;;;30.57;24.93;;;7.30;99.90;;;;;;4891777;29;20220;-77
2023/04/19 04:57:45;;;;;;;30.57;25.30;;;7.30;99.90;;;;;;4889867;29;20209;-79
2023/04/19 05:00:13;;;;;;;30.50;24.87;;;7.40;99.90;;;;;;4889905;29;20213;-79
2023/04/19 05:02:41;;;;;;;27.27;23.47;;;7.40;99.90;;;;;;4889045;29;20563;-78
2023/04/19 05:05:11;;;;;;;27.77;22.67;;;7.40;99.90;;;;;;4887615;29;20725;-80
2023/04/19 05:07:40;;;;;;;28.40;22.43;;;7.40;99.90;;;;;;4893134;29;20229;-79
2023/04/19 05:10:09;;;;;;;31.27;23.60;;;7.40;99.90;;;;;;4887949;29;20614;-79
2023/04/19 05:12:37;;;;;;;29.97;23.40;;;7.50;99.90;;;;;;4886273;29;20676;-77
2023/04/19 05:15:10;;;;;;;28.67;23.63;;;7.40;99.90;;;;;;4886523;29;20580;-78
2023/04/19 05:17:38;;;;;;;32.30;23.47;;;7.50;99.90;;;;;;4888491;29;20293;-78
2023/04/19 05:20:08;;;;;;;27.40;22.80;;;7.40;99.90;;;;;;4890682;29;20229;-80
2023/04/19 05:22:36;;;;;;;29.23;23.00;;;7.50;99.90;;;;;;4885099;29;20601;-74
2023/04/19 05:25:08;;;;;;;28.07;23.00;;;7.50;99.90;;;;;;4880028;29;20582;-74
2023/04/19 05:27:36;;;;;;;27.80;22.83;;;7.50;99.90;;;;;;4879463;29;20259;-77
2023/04/19 05:30:06;;;;;;;28.00;22.87;;;7.50;99.90;;;;;;4879352;29;20221;-76
2023/04/19 05:32:34;;;;;;;26.57;22.53;;;7.50;99.90;;;;;;4877936;29;20716;-77
2023/04/19 05:35:02;;;;;;;26.53;21.43;;;7.60;99.90;;;;;;4878764;29;20260;-74
2023/04/19 05:37:30;;;;;;;27.73;22.30;;;7.50;99.90;;;;;;4878764;29;20317;-75
2023/04/19 05:39:58;;;;;;;27.67;22.47;;;7.60;99.90;;;;;;4883829;29;20313;-75
2023/04/19 05:42:28;;;;;;;30.83;22.37;;;7.70;99.90;;;;;;4883958;29;20210;-74
2023/04/19 05:44:56;;;;;;;27.97;22.30;;;7.60;99.90;;;;;;4881837;29;20646;-74
2023/04/19 05:47:24;;;;;;;28.67;22.60;;;7.50;99.90;;;;;;4878782;29;20237;-76
2023/04/19 05:49:52;;;;;;;26.53;21.43;;;7.60;99.90;;;;;;4879273;29;20218;-76
2023/04/19 05:52:21;;;;;;;27.23;22.07;;;7.60;99.90;;;;;;4879808;29;20214;-74
2023/04/19 05:54:49;;;;;;;28.40;22.17;;;7.50;99.90;;;;;;4884479;29;20241;-75
2023/04/19 05:57:17;;;;;;;28.13;21.63;;;7.50;99.90;;;;;;4878977;29;20203;-75
2023/04/19 05:59:46;;;;;;;24.77;21.80;;;7.60;99.90;;;;;;4878805;29;20217;-74
2023/04/19 06:02:14;;;;;;;28.13;22.73;;;7.60;99.90;;;;;;4878493;29;20222;-74
2023/04/19 06:04:42;;;;;;;26.50;21.90;;;7.60;99.90;;;;;;4879000;29;20699;-75
2023/04/19 06:07:11;;;;;;;25.03;21.70;;;7.70;99.90;;;;;;4888603;29;20210;-75
2023/04/19 06:09:58;;;;;;;26.60;21.73;;;7.70;99.90;;;;;;4878676;29;20201;-75
2023/04/19 06:12:26;;;;;;;28.77;22.37;;;7.70;99.90;;;;;;4878299;29;20226;-76
2023/04/19 06:14:56;;;;;;;26.47;21.57;;;7.70;99.90;;;;;;4883389;29;20302;-74
2023/04/19 06:17:24;;;;;;;25.33;21.20;;;7.60;99.90;;;;;;4892231;29;20554;-77
2023/04/19 06:19:53;;;;;;;26.57;21.20;;;7.70;99.90;;;;;;4878249;29;20727;-75
2023/04/19 06:22:21;;;;;;;26.27;21.70;;;7.80;99.90;;;;;;4878339;29;20220;-76
2023/04/19 06:24:49;;;;;;;26.47;21.60;;;7.80;99.90;;;;;;4878083;29;20297;-77
2023/04/19 06:27:19;;;;;;;25.40;21.27;;;7.80;99.90;;;;;;4890138;29;20253;-76
2023/04/19 06:29:47;;;;;;;25.70;21.17;;;7.80;99.90;;;;;;4896642;29;20210;-76
2023/04/19 06:32:19;;;;;;;28.03;22.30;;;7.80;99.90;;;;;;4896605;29;20198;-74
2023/04/19 06:34:47;;;;;;;25.93;21.53;;;7.80;99.90;;;;;;4890129;29;20246;-74
2023/04/19 06:37:15;;;;;;;25.47;22.27;;;8.00;99.90;;;;;;4878149;29;20247;-76
2023/04/19 06:39:43;;;;;;;25.23;20.60;;;8.00;99.90;;;;;;4878500;29;20246;-75
2023/04/19 06:42:12;;;;;;;27.90;22.03;;;8.10;99.90;;;;;;4877953;29;20261;-76
2023/04/19 06:44:40;;;;;;;24.97;20.83;;;8.30;99.90;;;;;;4881879;29;20225;-75
2023/04/19 06:47:08;;;;;;;24.43;20.03;;;8.50;99.90;;;;;;4883032;29;20215;-78
2023/04/19 06:49:37;;;;;;;24.43;20.80;;;8.70;99.90;;;;;;4882455;29;20635;-76
2023/04/19 06:52:05;;;;;;;23.50;19.60;;;8.90;99.90;;;;;;4882453;29;20317;-77
2023/04/19 06:54:33;;;;;;;23.17;19.27;;;8.90;99.90;;;;;;4889851;29;20222;-74
2023/04/19 06:57:02;;;;;;;24.43;20.40;;;9.10;99.90;;;;;;4902858;29;20218;-74
2023/04/19 06:59:31;;;;;;;41.50;28.50;;;9.20;99.90;;;;;;4902131;29;20210;-75
2023/04/19 07:01:59;;;;;;;33.00;23.90;;;9.30;99.90;;;;;;4900095;29;20333;-76
2023/04/19 07:04:27;;;;;;;25.77;20.73;;;9.50;99.90;;;;;;4900849;29;20213;-75
2023/04/19 07:06:57;;;;;;;788.50;428.53;;;9.60;99.90;;;;;;4901430;29;20233;-77
2023/04/19 07:09:25;;;;;;;23.70;19.70;;;10.00;99.90;;;;;;4903422;29;20238;-74
2023/04/19 07:11:53;;;;;;;21.27;17.87;;;10.00;99.90;;;;;;4898685;29;20214;-74
2023/04/19 07:14:22;;;;;;;163.13;84.13;;;10.50;99.90;;;;;;4882692;29;20220;-76
2023/04/19 07:16:52;;;;;;;30.60;22.57;;;11.40;99.90;;;;;;4881634;29;20214;-74
2023/04/19 07:19:21;;;;;;;20.93;16.23;;;12.20;99.90;;;;;;4880634;29;20214;-75
2023/04/19 07:21:50;;;;;;;17.80;15.90;;;13.10;99.90;;;;;;4881720;29;20266;-75
2023/04/19 07:24:19;;;;;;;17.23;15.17;;;13.50;99.90;;;;;;4897911;29;20664;-76
2023/04/19 07:26:51;;;;;;;18.23;14.17;;;13.80;99.90;;;;;;4917515;29;20244;-74
2023/04/19 07:29:21;;;;;;;17.37;15.57;;;13.90;99.90;;;;;;4917893;29;20236;-76
2023/04/19 07:31:49;;;;;;;17.53;14.13;;;13.80;99.90;;;;;;4918087;29;20235;-75
2023/04/19 07:34:18;;;;;;;16.30;14.17;;;14.20;99.90;;;;;;4893221;29;20217;-74
2023/04/19 07:36:46;;;;;;;16.93;14.20;;;14.70;99.90;;;;;;4909320;29;20213;-75
2023/04/19 07:39:14;;;;;;;17.13;15.00;;;14.30;99.90;;;;;;4902657;29;20205;-76
2023/04/19 07:41:45;;;;;;;18.53;14.83;;;14.30;99.90;;;;;;4897837;29;20212;-74
2023/04/19 07:44:13;;;;;;;18.50;15.77;;;14.10;99.90;;;;;;4884052;29;20245;-75
2023/04/19 07:46:43;;;;;;;20.93;16.80;;;14.00;99.90;;;;;;4898104;29;20225;-73
2023/04/19 07:49:11;;;;;;;21.37;16.20;;;14.10;99.90;;;;;;4891483;29;20312;-75
2023/04/19 07:51:39;;;;;;;17.13;15.43;;;13.50;99.90;;;;;;4896326;29;21399;-75
2023/04/19 07:54:09;;;;;;;19.07;16.33;;;14.40;99.90;;;;;;4894018;29;20217;-74
2023/04/19 07:56:37;;;;;;;17.03;14.90;;;14.80;99.90;;;;;;4898268;29;20244;-75
2023/04/19 07:59:06;;;;;;;17.00;15.20;;;14.80;99.90;;;;;;4898405;29;20687;-78
2023/04/19 08:01:36;;;;;;;17.30;15.27;;;14.20;99.90;;;;;;4894305;29;20214;-75
2023/04/19 08:04:05;;;;;;;16.80;15.07;;;13.60;99.90;;;;;;4891179;29;20213;-75
2023/04/19 08:06:33;;;;;;;21.70;14.80;;;13.40;99.90;;;;;;4898413;29;20237;-77
2023/04/19 08:09:01;;;;;;;19.80;15.97;;;13.30;99.90;;;;;;4897272;29;20334;-74
2023/04/19 08:11:30;;;;;;;20.07;15.03;;;13.00;99.90;;;;;;4898733;29;20213;-75
2023/04/19 08:13:58;;;;;;;19.03;15.47;;;13.30;99.90;;;;;;4899230;29;20689;-75
2023/04/19 08:16:47;;;;;;;19.07;14.93;;;13.60;99.90;;;;;;4910819;29;20236;-76
2023/04/19 08:19:18;;;;;;;15.83;14.17;;;13.70;99.90;;;;;;4880950;29;20228;-76
2023/04/19 08:21:46;;;;;;;17.20;14.17;;;13.90;99.90;;;;;;4900912;29;20574;-73
2023/04/19 08:24:14;;;;;;;17.90;14.90;;;13.80;99.90;;;;;;4903388;29;20747;-76
2023/04/19 08:26:43;;;;;;;17.30;15.40;;;13.40;99.90;;;;;;4895879;29;20221;-80
2023/04/19 08:29:11;;;;;;;17.63;15.33;;;12.70;99.90;;;;;;4898342;29;20237;-76
2023/04/19 08:31:43;;;;;;;18.90;15.17;;;12.90;99.90;;;;;;4897330;29;20312;-78
2023/04/19 08:34:12;;;;;;;16.93;14.73;;;12.90;99.90;;;;;;4897971;29;20208;-76
2023/04/19 08:36:41;;;;;;;17.67;15.00;;;13.10;99.90;;;;;;4880243;29;20273;-78
2023/04/19 08:39:19;;;;;;;17.50;15.17;;;12.80;99.90;;;;;;4879302;29;20658;-78
2023/04/19 08:42:04;;;;;;;18.80;16.43;;;12.60;99.90;;;;;;4879470;29;20204;-76
2023/04/19 08:44:46;;;;;;;21.00;16.27;;;12.20;99.90;;;;;;4879402;29;20206;-75
2023/04/19 08:47:17;;;;;;;18.33;16.40;;;12.00;99.90;;;;;;4889916;29;20216;-75
2023/04/19 08:50:01;;;;;;;19.97;15.97;;;12.00;99.90;;;;;;4899056;29;20256;-75
2023/04/19 08:52:34;;;;;;;18.93;16.10;;;11.70;99.90;;;;;;4899558;29;20221;-76
2023/04/19 08:55:16;;;;;;;17.50;15.57;;;11.90;99.90;;;;;;4886673;29;20300;-75
2023/04/19 08:57:44;;;;;;;19.97;16.73;;;11.80;99.90;;;;;;4897714;29;20276;-78
2023/04/19 09:00:14;;;;;;;20.50;16.60;;;11.80;99.90;;;;;;4898713;29;20220;-74
2023/04/19 09:02:46;;;;;;;20.73;16.90;;;11.80;99.90;;;;;;4893509;29;20555;-78
2023/04/19 09:05:17;;;;;;;20.83;17.60;;;11.70;99.90;;;;;;4879349;29;20669;-75
2023/04/19 09:07:46;;;;;;;22.83;17.37;;;11.70;99.90;;;;;;4893757;29;20233;-76
2023/04/19 09:10:17;;;;;;;20.00;16.70;;;11.80;99.90;;;;;;4888797;29;20238;-75
2023/04/19 09:13:00;;;;;;;21.87;17.10;;;12.00;99.90;;;;;;4895745;29;20210;-75
2023/04/19 09:15:38;;;;;;;19.77;16.70;;;12.00;99.90;;;;;;4897272;29;20200;-77
2023/04/19 09:18:08;;;;;;;20.63;17.73;;;11.80;99.90;;;;;;4894330;29;20648;-73
2023/04/19 09:20:39;;;;;;;19.53;17.50;;;11.90;99.90;;;;;;4898554;29;20578;-73
2023/04/19 09:23:11;;;;;;;23.47;17.70;;;12.20;99.90;;;;;;4896924;29;20217;-77
2023/04/19 09:25:39;;;;;;;21.13;19.00;;;12.30;99.90;;;;;;4892052;29;20504;-79
2023/04/19 09:28:28;;;;;;;19.57;17.40;;;12.50;99.90;;;;;;4896609;29;20621;-79
2023/04/19 09:30:56;;;;;;;18.57;16.13;;;12.40;99.90;;;;;;4895718;29;20597;-74
2023/04/19 09:33:44;;;;;;;20.00;15.80;;;12.40;99.90;;;;;;4897644;29;20233;-77
2023/04/19 09:36:27;;;;;;;18.83;16.83;;;12.30;99.90;;;;;;4897273;29;20308;-74
2023/04/19 09:38:55;;;;;;;19.50;16.83;;;12.60;99.90;;;;;;4893270;29;20692;-76
2023/04/19 09:41:23;;;;;;;18.93;16.47;;;12.90;99.90;;;;;;4878856;29;20217;-75
2023/04/19 09:43:52;;;;;;;19.90;17.73;;;12.70;99.90;;;;;;4878710;29;20218;-74
2023/04/19 09:46:41;;;;;;;19.87;17.67;;;13.10;99.90;;;;;;4880036;29;20262;-76
2023/04/19 09:49:25;;;;;;;28.40;22.60;;;13.40;99.90;;;;;;4880675;29;20225;-74
2023/04/19 09:52:15;;;;;;;19.53;17.20;;;13.90;99.90;;;;;;4879949;29;20213;-77
2023/04/19 09:54:45;;;;;;;18.50;16.47;;;13.80;99.90;;;;;;4885806;29;20743;-76
2023/04/19 09:57:14;;;;;;;26.33;20.80;;;14.40;99.90;;;;;;4898790;29;20224;-75
2023/04/19 09:59:42;;;;;;;59.40;37.70;;;14.30;99.90;;;;;;4879429;29;20692;-78
2023/04/19 10:02:12;;;;;;;28.33;21.57;;;13.80;99.90;;;;;;4900468;29;20225;-77
2023/04/19 10:04:42;;;;;;;18.70;15.73;;;14.10;99.90;;;;;;4899413;29;20259;-76
2023/04/19 10:07:32;;;;;;;17.80;16.00;;;13.60;99.90;;;;;;4907361;29;20243;-76
2023/04/19 10:10:02;;;;;;;20.47;17.07;;;13.60;99.90;;;;;;4918071;29;20267;-75
2023/04/19 10:12:49;;;;;;;20.10;16.30;;;13.50;99.90;;;;;;4900232;29;20731;-74
2023/04/19 10:15:21;;;;;;;19.17;17.17;;;12.90;99.90;;;;;;4878162;29;20195;-73
2023/04/19 10:17:50;;;;;;;19.53;16.83;;;12.50;99.90;;;;;;4880024;29;20708;-75
2023/04/19 10:20:22;;;;;;;19.60;17.00;;;12.50;99.90;;;;;;4883962;29;20217;-78
2023/04/19 10:22:52;;;;;;;18.47;16.10;;;12.30;99.90;;;;;;4888667;29;20270;-75
2023/04/19 10:25:29;;;;;;;17.03;15.23;;;12.30;99.90;;;;;;4883807;29;20297;-74
2023/04/19 10:27:58;;;;;;;19.60;15.93;;;12.30;99.90;;;;;;4885973;29;20273;-77
2023/04/19 10:30:27;;;;;;;18.40;16.40;;;12.00;99.90;;;;;;4918339;29;20225;-74
2023/04/19 10:32:56;;;;;;;19.60;16.60;;;12.20;99.90;;;;;;4887412;29;20624;-77
2023/04/19 10:35:28;;;;;;;19.07;17.07;;;12.10;99.90;;;;;;4883074;29;20229;-75
2023/04/19 10:38:05;;;;;;;19.47;17.37;;;12.00;99.90;;;;;;4881934;29;20238;-77
2023/04/19 10:40:57;;;;;;;20.67;18.47;;;11.70;99.90;;;;;;4881397;29;20210;-77
2023/04/19 10:43:26;;;;;;;21.63;18.47;;;11.40;99.90;;;;;;4881477;29;20224;-75
2023/04/19 10:46:01;;;;;;;22.57;19.83;;;11.30;99.90;;;;;;4888987;29;20677;-74
2023/04/19 10:48:42;;;;;;;22.17;19.87;;;11.10;99.90;;;;;;4890218;29;20300;-76
2023/04/19 10:51:15;;;;;;;23.10;20.60;;;11.20;99.90;;;;;;4900420;29;20324;-76
2023/04/19 10:53:46;;;;;;;24.83;20.10;;;10.90;99.90;;;;;;4900847;29;20214;-80
2023/04/19 10:56:15;;;;;;;22.80;19.67;;;10.90;99.90;;;;;;4909321;29;20574;-76
2023/04/19 10:59:21;;;;;;;22.27;19.23;;;10.70;99.90;;;;;;4890171;29;20282;-73
2023/04/19 11:01:52;;;;;;;24.13;20.50;;;10.80;99.90;;;;;;4900666;29;20221;-76
2023/04/19 11:04:25;;;;;;;24.00;20.90;;;10.80;99.90;;;;;;4900496;29;20210;-78
2023/04/19 11:07:00;;;;;;;23.10;19.53;;;10.70;99.90;;;;;;4895936;29;20210;-79
2023/04/19 11:09:33;;;;;;;19.37;17.23;;;10.60;99.90;;;;;;4897132;29;20200;-79
2023/04/19 11:12:03;;;;;;;15.77;14.07;;;10.50;99.90;;;;;;4919700;29;20225;-77
2023/04/19 11:14:34;;;;;;;32.37;27.97;;;10.20;99.90;;;;;;4919805;29;20319;-76
2023/04/19 11:17:05;;;;;;;21.37;17.57;;;10.00;99.90;;;;;;4901250;29;20277;-75
2023/04/19 11:19:33;;;;;;;14.30;10.70;;;10.00;99.90;;;;;;4887042;29;20614;-74
2023/04/19 11:22:01;;;;;;;14.03;11.70;;;9.80;99.90;;;;;;4884891;29;20217;-74
2023/04/19 11:24:30;;;;;;;20.90;11.30;;;9.70;99.90;;;;;;4882363;29;20313;-76
2023/04/19 11:26:58;;;;;;;12.20;10.87;;;9.80;99.90;;;;;;4893729;29;20661;-74
2023/04/19 11:29:26;;;;;;;11.63;10.43;;;9.70;99.90;;;;;;4901726;29;20423;-74
2023/04/19 11:31:55;;;;;;;10.77;9.40;;;9.60;99.90;;;;;;4901200;29;20244;-73
2023/04/19 11:34:24;;;;;;;10.60;9.03;;;9.50;99.90;;;;;;4883581;29;20214;-78
2023/04/19 11:36:52;;;;;;;10.50;9.40;;;9.40;99.90;;;;;;4889129;29;20324;-77
2023/04/19 11:39:21;;;;;;;9.83;7.90;;;9.50;99.90;;;;;;4900421;29;20210;-78
2023/04/19 11:41:51;;;;;;;11.37;9.20;;;9.50;99.90;;;;;;4888699;29;20210;-75
2023/04/19 11:44:20;;;;;;;14.70;11.10;;;9.50;99.90;;;;;;4882159;29;20257;-78
2023/04/19 11:46:59;;;;;;;10.60;8.83;;;9.60;99.90;;;;;;4885295;29;20214;-75
2023/04/19 11:49:29;;;;;;;10.47;8.77;;;9.50;99.90;;;;;;4906535;29;20208;-77
2023/04/19 11:51:58;;;;;;;10.83;9.67;;;9.50;99.90;;;;;;4911790;29;20229;-75
2023/04/19 11:54:27;;;;;;;10.77;9.53;;;9.40;99.90;;;;;;4902885;29;20221;-75
2023/04/19 11:57:05;;;;;;;10.00;9.00;;;9.30;99.90;;;;;;4890723;29;20661;-75
2023/04/19 11:59:35;;;;;;;10.17;8.83;;;9.30;99.90;;;;;;4883453;29;20771;-77
2023/04/19 12:02:10;;;;;;;8.93;7.97;;;9.40;99.90;;;;;;4884103;29;20214;-76
2023/04/19 13:29:48;;;;;;;7.23;6.20;;;8.10;99.90;;;;;;5503143;23;20265;-77
2023/04/19 13:32:17;;;;;;;6.60;5.90;;;8.00;99.90;;;;;;4891312;29;20225;-77
2023/04/19 13:34:45;;;;;;;8.97;6.03;;;7.90;99.90;;;;;;4901477;29;20241;-76
2023/04/19 13:37:13;;;;;;;6.80;5.97;;;7.90;99.90;;;;;;4891942;29;20634;-78
2023/04/19 13:39:41;;;;;;;6.60;5.90;;;7.80;99.90;;;;;;4895374;29;20237;-79
2023/04/19 13:42:09;;;;;;;7.50;5.93;;;7.80;99.90;;;;;;4897383;29;20260;-75
2023/04/19 13:44:37;;;;;;;6.20;5.60;;;7.90;99.90;;;;;;4895449;29;20297;-76
2023/04/19 13:47:07;;;;;;;7.67;6.10;;;7.80;99.90;;;;;;4884702;29;20316;-79
2023/04/19 13:49:35;;;;;;;8.30;6.70;;;7.80;99.90;;;;;;4902969;29;20209;-77
2023/04/19 13:52:04;;;;;;;8.23;6.33;;;7.80;99.90;;;;;;4898119;29;20224;-78
2023/04/19 13:54:32;;;;;;;8.10;7.03;;;7.70;99.90;;;;;;4899158;29;20220;-76
2023/04/19 13:57:00;;;;;;;7.87;7.03;;;7.70;99.90;;;;;;4888790;29;20221;-78
2023/04/19 13:59:29;;;;;;;8.83;7.30;;;7.60;99.90;;;;;;4898220;29;20221;-77
2023/04/19 14:01:57;;;;;;;9.30;8.07;;;7.50;99.90;;;;;;4900768;29;20214;-80
2023/04/19 14:04:26;;;;;;;8.33;7.40;;;7.50;99.90;;;;;;4901240;29;20840;-78
2023/04/19 14:06:55;;;;;;;8.70;7.80;;;7.40;99.90;;;;;;4886134;29;20439;-76
2023/04/19 14:09:24;;;;;;;9.13;8.10;;;7.30;99.90;;;;;;4885941;29;20228;-78
2023/04/19 14:11:52;;;;;;;11.73;8.17;;;7.30;99.90;;;;;;4900919;29;20229;-78
2023/04/19 14:14:20;;;;;;;12.07;8.23;;;7.20;99.90;;;;;;4889296;29;20301;-74